createdAt,value
2024-02-29T00:00:53.953Z,6.57
2024-02-29T00:03:23.808Z,6.58
2024-02-29T00:05:55.182Z,6.59
2024-02-29T00:08:24.992Z,6.58
2024-02-29T00:10:54.656Z,6.57
2024-02-29T00:13:27.482Z,6.56
2024-02-29T00:15:57.147Z,6.54
2024-02-29T00:18:26.905Z,6.55
2024-02-29T00:20:56.576Z,6.57
2024-02-29T00:23:26.356Z,6.59
2024-02-29T00:25:56.070Z,6.61
2024-02-29T00:28:25.788Z,6.61
2024-02-29T00:30:55.529Z,6.62
2024-02-29T00:33:25.388Z,6.63
2024-02-29T00:36:05.068Z,6.62
2024-02-29T00:38:40.087Z,6.61
2024-02-29T00:41:09.838Z,6.60
2024-02-29T00:43:41.792Z,6.61
2024-02-29T00:46:14.148Z,6.62
2024-02-29T00:48:43.871Z,6.63
2024-02-29T00:51:13.610Z,6.63
2024-02-29T00:53:43.260Z,6.63
2024-02-29T00:56:15.545Z,6.62
2024-02-29T00:58:45.252Z,6.61
2024-02-29T01:01:15.198Z,6.59
2024-02-29T01:03:45.043Z,6.57
2024-02-29T01:06:17.352Z,6.57
2024-02-29T01:08:47.184Z,6.56
2024-02-29T01:11:16.934Z,6.55
2024-02-29T01:13:46.721Z,6.55
2024-02-29T01:16:19.614Z,6.55
2024-02-29T01:18:49.457Z,6.54
2024-02-29T01:21:19.145Z,6.54
2024-02-29T01:23:48.972Z,6.53
2024-02-29T01:26:18.747Z,6.51
2024-02-29T01:28:48.720Z,6.52
2024-02-29T01:31:18.502Z,6.55
2024-02-29T01:33:48.392Z,6.56
2024-02-29T01:36:18.138Z,6.58
2024-02-29T01:38:47.874Z,6.61
2024-02-29T01:41:18.843Z,6.61
2024-02-29T01:43:54.925Z,6.61
2024-02-29T01:46:26.004Z,6.60
2024-02-29T01:48:57.525Z,6.59
2024-02-29T01:51:27.889Z,6.60
2024-02-29T01:53:59.790Z,6.62
2024-02-29T01:56:29.887Z,6.66
2024-02-29T01:59:03.227Z,6.67
2024-02-29T02:01:33.395Z,6.68
2024-02-29T02:04:03.445Z,6.70
2024-02-29T02:06:33.643Z,6.71
2024-02-29T02:09:03.558Z,6.70
2024-02-29T02:11:33.233Z,6.71
2024-02-29T02:14:05.409Z,6.75
2024-02-29T02:16:37.288Z,6.78
2024-02-29T02:19:12.298Z,6.81
2024-02-29T02:21:43.289Z,6.83
2024-02-29T02:24:13.120Z,6.83
2024-02-29T02:26:45.281Z,6.84
2024-02-29T02:29:17.558Z,6.83
2024-02-29T02:31:47.370Z,6.82
2024-02-29T02:34:17.116Z,6.82
2024-02-29T02:36:46.833Z,6.84
2024-02-29T02:39:16.683Z,6.86
2024-02-29T02:41:49.414Z,6.89
2024-02-29T02:44:19.178Z,6.90
2024-02-29T02:46:48.973Z,6.89
2024-02-29T02:49:18.858Z,6.90
2024-02-29T02:51:50.953Z,6.90
2024-02-29T02:54:20.810Z,6.90
2024-02-29T02:56:50.518Z,6.89
2024-02-29T02:59:20.393Z,6.92
2024-02-29T03:01:50.499Z,6.95
2024-02-29T03:04:20.593Z,6.98
2024-02-29T03:06:50.442Z,7.00
2024-02-29T03:09:22.553Z,7.01
2024-02-29T03:11:52.738Z,7.02
2024-02-29T03:14:22.523Z,7.03
2024-02-29T03:16:54.698Z,7.02
2024-02-29T03:19:24.497Z,7.03
2024-02-29T03:21:54.230Z,7.07
2024-02-29T03:24:24.011Z,7.11
2024-02-29T03:26:53.733Z,7.16
2024-02-29T03:29:23.461Z,7.20
2024-02-29T03:31:53.198Z,7.23
2024-02-29T03:34:22.924Z,7.25
2024-02-29T03:36:52.652Z,7.26
2024-02-29T03:39:22.410Z,7.27
2024-02-29T03:41:52.017Z,7.32
2024-02-29T03:44:21.825Z,7.36
2024-02-29T03:46:51.674Z,7.41
2024-02-29T03:49:21.534Z,7.46
2024-02-29T03:51:51.958Z,7.49
2024-02-29T03:54:24.296Z,7.52
2024-02-29T03:56:54.036Z,7.53
2024-02-29T03:59:24.308Z,7.53
2024-02-29T04:01:54.328Z,7.52
2024-02-29T04:04:24.564Z,7.54
2024-02-29T04:06:58.136Z,7.59
2024-02-29T04:09:27.966Z,7.62
2024-02-29T04:11:57.725Z,7.66
2024-02-29T04:14:29.737Z,7.69
2024-02-29T04:16:59.396Z,7.69
2024-02-29T04:19:29.074Z,7.70
2024-02-29T04:21:58.763Z,7.68
2024-02-29T04:24:28.491Z,7.66
2024-02-29T04:26:58.208Z,7.68
2024-02-29T04:29:27.910Z,7.70
2024-02-29T04:31:57.607Z,7.73
2024-02-29T04:34:27.373Z,7.76
2024-02-29T04:36:57.131Z,7.78
2024-02-29T04:39:26.999Z,7.79
2024-02-29T04:41:56.881Z,7.79
2024-02-29T04:44:26.667Z,7.80
2024-02-29T04:46:58.726Z,7.80
2024-02-29T04:49:28.492Z,7.82
2024-02-29T04:51:58.319Z,7.84
2024-02-29T04:54:28.033Z,7.85
2024-02-29T04:56:57.743Z,7.87
2024-02-29T04:59:27.579Z,7.88
2024-02-29T05:01:57.297Z,7.90
2024-02-29T05:04:27.095Z,7.89
2024-02-29T05:06:57.497Z,7.88
2024-02-29T05:09:27.317Z,7.88
2024-02-29T05:11:56.980Z,7.90
2024-02-29T05:14:29.686Z,7.93
2024-02-29T05:16:59.361Z,7.95
2024-02-29T05:19:29.158Z,7.96
2024-02-29T05:21:58.965Z,7.96
2024-02-29T05:24:28.774Z,7.97
2024-02-29T05:26:58.486Z,7.97
2024-02-29T05:29:31.170Z,7.98
2024-02-29T05:32:01.840Z,7.99
2024-02-29T05:34:33.793Z,8.02
2024-02-29T05:37:05.705Z,8.02
2024-02-29T05:39:36.298Z,8.04
2024-02-29T05:42:06.573Z,8.04
2024-02-29T05:44:36.614Z,8.03
2024-02-29T05:47:06.626Z,8.02
2024-02-29T05:49:36.810Z,8.01
2024-02-29T05:52:07.519Z,8.01
2024-02-29T05:54:39.475Z,8.02
2024-02-29T05:57:09.244Z,8.04
2024-02-29T05:59:38.947Z,8.05
2024-02-29T06:02:11.323Z,8.06
2024-02-29T06:04:43.322Z,8.07
2024-02-29T06:07:13.112Z,8.07
2024-02-29T06:09:43.798Z,8.07
2024-02-29T06:12:13.564Z,8.07
2024-02-29T06:14:43.336Z,8.08
2024-02-29T06:17:13.073Z,8.10
2024-02-29T06:19:42.875Z,8.12
2024-02-29T06:22:12.677Z,8.12
2024-02-29T06:24:42.361Z,8.11
2024-02-29T06:27:12.076Z,8.12
2024-02-29T06:29:41.710Z,8.10
2024-02-29T06:32:11.509Z,8.09
2024-02-29T06:34:41.218Z,8.11
2024-02-29T06:37:12.890Z,8.15
2024-02-29T06:39:42.736Z,8.19
2024-02-29T06:42:12.521Z,8.20
2024-02-29T06:44:42.339Z,8.22
2024-02-29T06:47:12.080Z,8.22
2024-02-29T06:49:41.966Z,8.22
2024-02-29T06:52:11.754Z,8.23
2024-02-29T06:54:43.948Z,8.25
2024-02-29T06:57:14.618Z,8.28
2024-02-29T06:59:48.744Z,8.30
2024-02-29T07:02:19.655Z,8.32
2024-02-29T07:04:49.434Z,8.34
2024-02-29T07:07:20.432Z,8.35
2024-02-29T07:09:54.233Z,8.34
2024-02-29T07:12:24.028Z,8.34
2024-02-29T07:14:53.867Z,8.34
2024-02-29T07:17:25.923Z,8.36
2024-02-29T07:19:55.562Z,8.39
2024-02-29T07:22:25.330Z,8.41
2024-02-29T07:24:55.093Z,8.42
2024-02-29T07:27:24.924Z,8.43
2024-02-29T07:29:54.679Z,8.43
2024-02-29T07:32:24.417Z,8.43
2024-02-29T07:34:54.610Z,8.44
2024-02-29T07:37:24.458Z,8.47
2024-02-29T07:39:54.165Z,8.51
2024-02-29T07:42:23.897Z,8.56
2024-02-29T07:44:56.109Z,8.58
2024-02-29T07:47:25.887Z,8.59
2024-02-29T07:49:55.704Z,8.60
2024-02-29T07:52:25.509Z,8.61
2024-02-29T07:54:55.318Z,8.63
2024-02-29T07:57:25.896Z,8.66
2024-02-29T07:59:55.655Z,8.68
2024-02-29T08:02:25.487Z,8.72
2024-02-29T08:04:55.968Z,8.73
2024-02-29T08:07:25.739Z,8.75
2024-02-29T08:09:55.520Z,8.75
2024-02-29T08:12:25.274Z,8.76
2024-02-29T08:14:55.019Z,8.75
2024-02-29T08:17:28.368Z,8.78
2024-02-29T08:19:58.180Z,8.82
2024-02-29T08:22:27.930Z,8.86
2024-02-29T08:24:58.371Z,8.90
2024-02-29T08:27:30.642Z,8.92
2024-02-29T08:30:00.390Z,8.94
2024-02-29T08:32:30.244Z,8.97
2024-02-29T08:35:00.240Z,8.99
2024-02-29T08:37:30.082Z,9.02
2024-02-29T08:40:06.256Z,9.06
2024-02-29T08:42:36.225Z,9.08
2024-02-29T08:45:10.536Z,9.09
2024-02-29T08:47:42.843Z,9.10
2024-02-29T08:50:13.091Z,9.09
2024-02-29T08:52:43.419Z,9.10
2024-02-29T08:55:13.748Z,9.11
2024-02-29T08:57:43.659Z,9.15
2024-02-29T09:00:17.545Z,9.16
2024-02-29T09:02:47.375Z,9.20
2024-02-29T09:05:17.537Z,9.24
2024-02-29T09:07:47.268Z,9.25
2024-02-29T09:10:17.540Z,9.28
2024-02-29T09:12:47.957Z,9.31
2024-02-29T09:15:18.305Z,9.34
2024-02-29T09:17:48.415Z,9.38
2024-02-29T09:20:18.237Z,9.42
2024-02-29T09:22:50.346Z,9.45
2024-02-29T09:25:20.424Z,9.47
2024-02-29T09:27:51.112Z,9.47
2024-02-29T09:30:20.927Z,9.47
2024-02-29T09:32:53.635Z,9.49
2024-02-29T09:35:23.688Z,9.48
2024-02-29T09:37:54.076Z,9.47
2024-02-29T09:40:24.176Z,9.49
2024-02-29T09:42:54.298Z,9.53
2024-02-29T09:45:26.039Z,9.56
2024-02-29T09:47:55.905Z,9.60
2024-02-29T09:50:25.803Z,9.62
2024-02-29T09:52:57.012Z,9.62
2024-02-29T09:55:29.200Z,9.61
2024-02-29T09:58:01.150Z,9.63
2024-02-29T10:00:31.918Z,9.68
2024-02-29T10:03:03.722Z,9.72
2024-02-29T10:05:35.637Z,9.75
2024-02-29T10:08:07.113Z,9.78
2024-02-29T10:10:37.922Z,9.77
2024-02-29T10:13:08.092Z,9.77
2024-02-29T10:15:38.096Z,9.77
2024-02-29T10:18:08.745Z,9.76
2024-02-29T10:20:38.888Z,9.77
2024-02-29T10:23:16.170Z,9.78
2024-02-29T10:25:46.021Z,9.78
2024-02-29T10:28:16.025Z,9.79
2024-02-29T10:30:57.478Z,9.79
2024-02-29T10:33:27.554Z,9.78
2024-02-29T10:36:00.351Z,9.76
2024-02-29T10:38:32.380Z,9.74
2024-02-29T10:41:02.582Z,9.72
2024-02-29T10:43:34.199Z,9.73
2024-02-29T10:46:08.357Z,9.76
2024-02-29T10:48:48.709Z,9.79
2024-02-29T10:51:27.319Z,9.82
2024-02-29T10:54:10.316Z,9.83
2024-02-29T10:56:43.196Z,9.82
2024-02-29T10:59:17.298Z,9.79
2024-02-29T11:01:48.082Z,9.79
2024-02-29T11:04:20.526Z,9.81
2024-02-29T11:06:51.325Z,9.83
2024-02-29T11:09:27.419Z,9.86
2024-02-29T11:12:10.213Z,9.87
2024-02-29T11:14:43.786Z,9.86
2024-02-29T11:17:18.157Z,9.85
2024-02-29T11:19:59.145Z,9.86
2024-02-29T11:22:36.050Z,9.85
2024-02-29T11:25:11.980Z,9.85
2024-02-29T11:27:51.740Z,9.87
2024-02-29T11:30:24.408Z,9.89
2024-02-29T11:32:54.578Z,9.92
2024-02-29T11:35:26.559Z,9.94
2024-02-29T11:38:01.403Z,9.94
2024-02-29T11:40:35.307Z,9.94
2024-02-29T11:43:08.682Z,9.93
2024-02-29T11:45:38.963Z,9.94
2024-02-29T11:48:09.006Z,9.96
2024-02-29T11:50:39.973Z,9.98
2024-02-29T11:53:10.087Z,9.99
2024-02-29T11:55:39.942Z,10.04
2024-02-29T11:58:10.231Z,10.08
2024-02-29T12:00:40.062Z,10.10
2024-02-29T12:03:10.071Z,10.11
2024-02-29T12:05:40.158Z,10.15
2024-02-29T12:08:10.779Z,10.18
2024-02-29T12:10:41.002Z,10.21
2024-02-29T12:13:10.970Z,10.23
2024-02-29T12:15:41.187Z,10.25
2024-02-29T12:18:12.202Z,10.23
2024-02-29T12:20:42.595Z,10.20
2024-02-29T12:23:16.317Z,10.19
2024-02-29T12:25:48.562Z,10.17
2024-02-29T12:28:19.765Z,10.20
2024-02-29T12:30:50.133Z,10.23
2024-02-29T12:33:22.914Z,10.25
2024-02-29T12:35:54.207Z,10.25
2024-02-29T12:38:27.634Z,10.28
2024-02-29T12:40:57.687Z,10.32
2024-02-29T12:43:27.621Z,10.34
2024-02-29T12:45:58.225Z,10.32
2024-02-29T12:48:28.075Z,10.31
2024-02-29T12:50:57.877Z,10.32
2024-02-29T12:53:27.660Z,10.36
2024-02-29T12:55:57.419Z,10.39
2024-02-29T12:58:27.222Z,10.42
2024-02-29T13:00:57.093Z,10.42
2024-02-29T13:03:27.352Z,10.43
2024-02-29T13:05:57.203Z,10.43
2024-02-29T13:08:27.080Z,10.44
2024-02-29T13:10:56.807Z,10.46
2024-02-29T13:13:26.586Z,10.48
2024-02-29T13:15:59.186Z,10.51
2024-02-29T13:18:29.009Z,10.54
2024-02-29T13:20:59.422Z,10.56
2024-02-29T13:23:29.939Z,10.59
2024-02-29T13:26:00.196Z,10.58
2024-02-29T13:28:30.171Z,10.57
2024-02-29T13:31:00.014Z,10.58
2024-02-29T13:33:32.400Z,10.61
2024-02-29T13:36:02.315Z,10.61
2024-02-29T13:38:32.210Z,10.64
2024-02-29T13:41:02.011Z,10.65
2024-02-29T13:43:31.937Z,10.65
2024-02-29T13:46:01.635Z,10.64
2024-02-29T13:48:31.394Z,10.63
2024-02-29T13:51:01.135Z,10.63
2024-02-29T13:53:30.846Z,10.63
2024-02-29T13:56:04.280Z,10.65
2024-02-29T13:58:34.084Z,10.67
2024-02-29T14:01:05.923Z,10.65
2024-02-29T14:03:39.057Z,10.64
2024-02-29T14:06:09.557Z,10.62
2024-02-29T14:08:39.378Z,10.63
2024-02-29T14:11:10.117Z,10.63
2024-02-29T14:13:40.721Z,10.65
2024-02-29T14:16:11.723Z,10.67
2024-02-29T14:18:41.491Z,10.70
2024-02-29T14:21:11.362Z,10.72
2024-02-29T14:23:41.163Z,10.73
2024-02-29T14:26:11.974Z,10.73
2024-02-29T14:28:44.214Z,10.73
2024-02-29T14:31:14.845Z,10.72
2024-02-29T14:33:44.630Z,10.74
2024-02-29T14:36:14.651Z,10.75
2024-02-29T14:38:46.857Z,10.76
2024-02-29T14:41:16.683Z,10.76
2024-02-29T14:43:48.852Z,10.75
2024-02-29T14:46:18.797Z,10.76
2024-02-29T14:48:48.557Z,10.74
2024-02-29T14:51:18.376Z,10.73
2024-02-29T14:53:51.588Z,10.74
2024-02-29T14:56:21.681Z,10.75
2024-02-29T14:58:51.861Z,10.75
2024-02-29T15:01:24.257Z,10.74
2024-02-29T15:03:54.174Z,10.73
2024-02-29T15:06:24.806Z,10.69
2024-02-29T15:08:54.818Z,10.66
2024-02-29T15:11:27.800Z,10.64
2024-02-29T15:14:00.268Z,10.64
2024-02-29T15:16:30.421Z,10.65
2024-02-29T15:19:00.218Z,10.63
2024-02-29T15:21:30.954Z,10.58
2024-02-29T15:24:05.494Z,10.55
2024-02-29T15:26:40.011Z,10.53
2024-02-29T15:29:09.876Z,10.49
2024-02-29T15:31:41.249Z,10.45
2024-02-29T15:34:11.225Z,10.42
2024-02-29T15:36:41.002Z,10.43
2024-02-29T15:39:10.695Z,10.44
2024-02-29T15:41:40.482Z,10.44
2024-02-29T15:44:10.168Z,10.43
2024-02-29T15:46:40.410Z,10.42
2024-02-29T15:49:12.604Z,10.41
2024-02-29T15:51:42.422Z,10.42
2024-02-29T15:54:12.114Z,10.44
2024-02-29T15:56:41.913Z,10.46
2024-02-29T15:59:15.059Z,10.45
2024-02-29T16:01:45.057Z,10.42
2024-02-29T16:04:14.825Z,10.38
2024-02-29T16:06:48.215Z,10.35
2024-02-29T16:09:18.003Z,10.31
2024-02-29T16:11:47.840Z,10.31
2024-02-29T16:14:17.744Z,10.30
2024-02-29T16:16:49.142Z,10.30
2024-02-29T16:19:21.540Z,10.30
2024-02-29T16:21:53.823Z,10.29
2024-02-29T16:24:23.780Z,10.27
2024-02-29T16:26:53.679Z,10.23
2024-02-29T16:29:23.622Z,10.21
2024-02-29T16:31:53.360Z,10.20
2024-02-29T16:34:23.578Z,10.19
2024-02-29T16:36:53.381Z,10.20
2024-02-29T16:39:25.615Z,10.20
2024-02-29T16:41:55.473Z,10.18
2024-02-29T16:44:27.779Z,10.16
2024-02-29T16:46:57.608Z,10.14
2024-02-29T16:49:27.598Z,10.14
2024-02-29T16:51:58.652Z,10.15
2024-02-29T16:54:28.561Z,10.16
2024-02-29T16:57:00.680Z,10.15
2024-02-29T16:59:30.761Z,10.15
2024-02-29T17:02:00.756Z,10.14
2024-02-29T17:04:34.460Z,10.12
2024-02-29T17:07:05.871Z,10.07
2024-02-29T17:09:38.024Z,10.07
2024-02-29T17:12:12.969Z,10.07
2024-02-29T17:14:42.759Z,10.07
2024-02-29T17:17:12.472Z,10.07
2024-02-29T17:19:42.764Z,10.07
2024-02-29T17:22:12.626Z,10.04
2024-02-29T17:24:43.076Z,10.02
2024-02-29T17:27:12.794Z,10.03
2024-02-29T17:29:48.167Z,10.04
2024-02-29T17:32:17.885Z,10.05
2024-02-29T17:34:49.023Z,10.02
2024-02-29T17:37:21.932Z,10.05
2024-02-29T17:39:52.771Z,10.03
2024-02-29T17:42:22.512Z,10.03
2024-02-29T17:44:52.274Z,10.04
2024-02-29T17:47:22.085Z,10.05
2024-02-29T17:49:54.337Z,10.07
2024-02-29T17:52:24.118Z,10.07
2024-02-29T17:54:55.344Z,10.06
2024-02-29T17:57:27.282Z,10.05
2024-02-29T17:59:57.319Z,10.03
2024-02-29T18:02:28.282Z,10.02
2024-02-29T18:05:00.042Z,10.02
2024-02-29T18:07:32.288Z,10.03
2024-02-29T18:10:02.988Z,10.06
2024-02-29T18:12:34.049Z,10.07
2024-02-29T18:15:04.125Z,10.08
2024-02-29T18:17:33.908Z,10.06
2024-02-29T18:20:07.473Z,10.04
2024-02-29T18:22:37.195Z,10.06
2024-02-29T18:25:08.326Z,10.09
2024-02-29T18:27:39.301Z,10.10
2024-02-29T18:30:11.272Z,10.09
2024-02-29T18:32:41.033Z,10.08
2024-02-29T18:35:11.663Z,10.06
2024-02-29T18:37:43.775Z,10.06
2024-02-29T18:40:16.228Z,10.06
2024-02-29T18:42:46.210Z,10.07
2024-02-29T18:45:19.392Z,10.09
2024-02-29T18:47:52.365Z,10.10
2024-02-29T18:50:23.091Z,10.11
2024-02-29T18:52:52.765Z,10.10
2024-02-29T18:55:24.471Z,10.09
2024-02-29T18:57:54.519Z,10.10
2024-02-29T19:00:25.312Z,10.11
2024-02-29T19:02:57.806Z,10.12
2024-02-29T19:05:27.592Z,10.12
2024-02-29T19:07:57.368Z,10.13
2024-02-29T19:10:27.118Z,10.13
2024-02-29T19:12:56.916Z,10.12
2024-02-29T19:15:26.821Z,10.11
2024-02-29T19:17:56.573Z,10.12
2024-02-29T19:20:26.294Z,10.12
2024-02-29T19:22:58.659Z,10.12
2024-02-29T19:25:28.342Z,10.14
2024-02-29T19:27:59.020Z,10.15
2024-02-29T19:30:28.776Z,10.15
2024-02-29T19:32:58.507Z,10.15
2024-02-29T19:35:32.236Z,10.14
2024-02-29T19:38:02.012Z,10.14
2024-02-29T19:40:31.770Z,10.15
2024-02-29T19:43:04.108Z,10.17
2024-02-29T19:45:36.002Z,10.16
2024-02-29T19:48:06.895Z,10.14
2024-02-29T19:50:36.662Z,10.14
2024-02-29T19:53:06.488Z,10.13
2024-02-29T19:55:38.221Z,10.13
2024-02-29T19:58:07.995Z,10.14
2024-02-29T20:00:37.787Z,10.15
2024-02-29T20:03:08.250Z,10.17
2024-02-29T20:05:38.798Z,10.16
2024-02-29T20:08:11.094Z,10.15
2024-02-29T20:10:43.322Z,10.14
2024-02-29T20:13:13.215Z,10.13
2024-02-29T20:15:42.974Z,10.14
2024-02-29T20:18:12.836Z,10.16
2024-02-29T20:20:45.082Z,10.17
2024-02-29T20:23:14.934Z,10.16
2024-02-29T20:25:44.909Z,10.16
2024-02-29T20:28:14.765Z,10.16
2024-02-29T20:30:44.456Z,10.15
2024-02-29T20:33:17.579Z,10.16
2024-02-29T20:35:47.343Z,10.18
2024-02-29T20:38:16.993Z,10.21
2024-02-29T20:40:46.748Z,10.19
2024-02-29T20:43:16.517Z,10.17
2024-02-29T20:45:46.743Z,10.17
2024-02-29T20:48:17.305Z,10.17
2024-02-29T20:50:47.089Z,10.18
2024-02-29T20:53:17.397Z,10.19
2024-02-29T20:55:47.167Z,10.21
2024-02-29T20:58:17.001Z,10.23
2024-02-29T21:00:46.918Z,10.27
2024-02-29T21:03:16.707Z,10.27
2024-02-29T21:05:47.101Z,10.27
2024-02-29T21:08:19.645Z,10.29
2024-02-29T21:10:52.109Z,10.31
2024-02-29T21:13:21.994Z,10.32
2024-02-29T21:15:54.886Z,10.33
2024-02-29T21:18:24.773Z,10.33
2024-02-29T21:20:57.678Z,10.34
2024-02-29T21:23:27.486Z,10.33
2024-02-29T21:25:57.569Z,10.35
2024-02-29T21:28:27.476Z,10.38
2024-02-29T21:30:57.435Z,10.39
2024-02-29T21:33:27.204Z,10.41
2024-02-29T21:35:59.518Z,10.42
2024-02-29T21:38:29.248Z,10.41
2024-02-29T21:40:59.119Z,10.41
2024-02-29T21:43:28.966Z,10.40
2024-02-29T21:45:58.756Z,10.40
2024-02-29T21:48:30.844Z,10.40
2024-02-29T21:51:01.425Z,10.43
2024-02-29T21:53:31.201Z,10.44
2024-02-29T21:56:00.908Z,10.44
2024-02-29T21:58:33.112Z,10.44
2024-02-29T22:01:02.902Z,10.45
2024-02-29T22:03:32.694Z,10.47
2024-02-29T22:06:02.451Z,10.48
2024-02-29T22:08:32.308Z,10.51
2024-02-29T22:11:02.185Z,10.52
2024-02-29T22:13:34.739Z,10.52
2024-02-29T22:16:04.936Z,10.52
2024-02-29T22:18:36.031Z,10.49
2024-02-29T22:21:06.169Z,10.47
2024-02-29T22:23:35.997Z,10.49
2024-02-29T22:26:06.009Z,10.51
2024-02-29T22:28:35.993Z,10.51
2024-02-29T22:31:06.231Z,10.54
2024-02-29T22:33:36.032Z,10.54
2024-02-29T22:36:06.566Z,10.53
2024-02-29T22:38:36.395Z,10.52
2024-02-29T22:41:06.503Z,10.53
2024-02-29T22:43:36.686Z,10.55
2024-02-29T22:46:06.663Z,10.57
2024-02-29T22:48:36.603Z,10.57
2024-02-29T22:51:06.813Z,10.56
2024-02-29T22:53:37.501Z,10.55
2024-02-29T22:56:08.020Z,10.54
2024-02-29T22:58:37.833Z,10.54
2024-02-29T23:01:07.909Z,10.56
2024-02-29T23:03:37.785Z,10.58
2024-02-29T23:06:07.828Z,10.59
2024-02-29T23:08:37.531Z,10.59
2024-02-29T23:11:07.484Z,10.60
2024-02-29T23:13:37.388Z,10.59
2024-02-29T23:16:07.461Z,10.60
2024-02-29T23:18:37.157Z,10.63
2024-02-29T23:21:08.575Z,10.64
2024-02-29T23:23:38.258Z,10.65
2024-02-29T23:26:08.557Z,10.66
2024-02-29T23:28:38.425Z,10.67
2024-02-29T23:31:08.261Z,10.65
2024-02-29T23:33:38.336Z,10.65
2024-02-29T23:36:08.679Z,10.65
2024-02-29T23:38:40.664Z,10.66
2024-02-29T23:41:10.354Z,10.68
2024-02-29T23:43:40.025Z,10.69
2024-02-29T23:46:10.110Z,10.69
2024-02-29T23:48:39.844Z,10.69
2024-02-29T23:51:10.425Z,10.68
2024-02-29T23:53:42.611Z,10.69
2024-02-29T23:56:12.297Z,10.71
2024-02-29T23:58:42.719Z,10.74
